Time;durP1;ratioP1;P1;durP2;ratioP2;P2;SDS_P1;SDS_P2;PMS_P1;PMS_P2;Temp;Humidity;BMP_temperature;BMP_pressure;BME280_temperature;BME280_humidity;BME280_pressure;Samples;Min_cycle;Max_cycle;Signal;HPM_P1;HPM_P2
2023/02/24 00:00:14;;;;;;;13.43;4.82;;;;;;;2.69;100.00;101576.28;2615262;36;20042;-53
2023/02/24 00:02:49;;;;;;;9.80;4.05;;;;;;;2.59;100.00;101570.47;2614771;31;20431;-50
2023/02/24 00:05:17;;;;;;;9.63;3.55;;;;;;;2.69;100.00;101569.16;2614614;36;20034;-49
2023/02/24 00:07:48;;;;;;;11.68;3.97;;;;;;;2.76;100.00;101567.94;2615061;36;20040;-54
2023/02/24 00:10:19;;;;;;;13.20;3.60;;;;;;;2.83;100.00;101568.56;2614222;36;20041;-50
2023/02/24 00:12:52;;;;;;;10.52;3.40;;;;;;;2.71;100.00;101562.00;2615331;36;20035;-57
2023/02/24 00:15:21;;;;;;;15.02;3.95;;;;;;;2.80;100.00;101564.22;2615779;36;20134;-51
2023/02/24 00:17:50;;;;;;;13.10;4.05;;;;;;;2.79;100.00;101564.31;2614203;36;20045;-49
2023/02/24 00:20:20;;;;;;;14.83;3.47;;;;;;;2.80;100.00;101553.59;2614557;36;20042;-54
2023/02/24 00:22:52;;;;;;;11.07;3.55;;;;;;;2.78;100.00;101558.13;2615169;36;20046;-58
2023/02/24 00:25:21;;;;;;;12.70;3.50;;;;;;;2.79;100.00;101548.34;2615031;36;20042;-53
2023/02/24 00:27:50;;;;;;;13.85;3.30;;;;;;;2.78;100.00;101542.19;2614286;36;20042;-50
2023/02/24 00:30:20;;;;;;;9.57;2.90;;;;;;;2.69;100.00;101539.06;2615262;36;20045;-56
2023/02/24 00:32:48;;;;;;;10.93;3.50;;;;;;;2.63;100.00;101538.41;2612342;36;20046;-51
2023/02/24 00:35:17;;;;;;;17.67;3.63;;;;;;;2.56;100.00;101546.72;2615391;36;20034;-55
2023/02/24 00:37:50;;;;;;;8.07;2.80;;;;;;;2.61;100.00;101534.09;2615911;31;20739;-51
2023/02/24 00:40:22;;;;;;;11.95;3.40;;;;;;;2.61;100.00;101542.06;2615504;36;20041;-51
2023/02/24 00:42:52;;;;;;;13.05;3.70;;;;;;;2.55;100.00;101521.94;2614305;36;20041;-54
2023/02/24 00:45:21;;;;;;;9.38;3.72;;;;;;;2.51;100.00;101530.13;2614643;36;20089;-51
2023/02/24 00:47:49;;;;;;;7.40;3.10;;;;;;;2.59;100.00;101520.00;2614363;36;20038;-54
2023/02/24 00:50:23;;;;;;;11.63;3.65;;;;;;;2.57;100.00;101525.38;2615016;36;20037;-55
2023/02/24 00:52:52;;;;;;;16.58;4.00;;;;;;;2.66;100.00;101523.25;2614591;36;20045;-52
2023/02/24 00:55:23;;;;;;;16.08;4.05;;;;;;;2.71;100.00;101507.94;2615463;36;20559;-54
2023/02/24 00:57:52;;;;;;;11.15;4.13;;;;;;;2.67;100.00;101503.72;2615443;36;20034;-50
2023/02/24 01:00:22;;;;;;;15.57;4.72;;;;;;;2.63;100.00;101508.31;2615626;31;20061;-55
2023/02/24 01:02:51;;;;;;;13.30;4.45;;;;;;;2.54;100.00;101495.44;2614940;36;20039;-51
2023/02/24 01:05:19;;;;;;;18.40;4.57;;;;;;;2.66;100.00;101478.91;2616031;36;20133;-51
2023/02/24 01:07:47;;;;;;;12.07;4.40;;;;;;;2.53;100.00;101481.28;2615548;36;20034;-52
2023/02/24 01:10:17;;;;;;;15.23;5.68;;;;;;;2.49;100.00;101473.50;2615239;36;20033;-50
2023/02/24 01:12:52;;;;;;;14.40;4.93;;;;;;;2.44;100.00;101482.56;2616046;31;20041;-50
2023/02/24 01:15:23;;;;;;;15.40;5.55;;;;;;;2.37;100.00;101478.47;2614995;36;20035;-51
2023/02/24 01:17:51;;;;;;;11.50;5.28;;;;;;;2.47;100.00;101467.41;2615370;36;20030;-54
2023/02/24 01:20:20;;;;;;;14.65;5.00;;;;;;;2.47;100.00;101454.13;2615506;36;20034;-52
2023/02/24 01:22:52;;;;;;;14.48;5.03;;;;;;;2.53;100.00;101453.84;2615070;36;20027;-55
2023/02/24 01:25:21;;;;;;;12.23;4.00;;;;;;;2.62;100.00;101450.75;2615427;36;20035;-55
2023/02/24 01:27:52;;;;;;;;;;;;;;;2.65;100.00;101445.31;2615978;36;20099;-55
2023/02/24 01:30:21;;;;;;;10.65;4.45;;;;;;;2.44;100.00;101428.53;2615584;36;19962;-51
2023/02/24 01:32:49;;;;;;;10.88;4.00;;;;;;;2.39;100.00;101431.41;2614481;36;20057;-49
2023/02/24 01:35:18;;;;;;;10.15;3.95;;;;;;;2.44;100.00;101434.75;2615711;36;20034;-50
2023/02/24 01:37:47;;;;;;;12.53;4.30;;;;;;;2.45;100.00;101425.81;2615392;36;20041;-50
2023/02/24 01:40:19;;;;;;;11.60;3.47;;;;;;;2.40;100.00;101426.97;2616267;36;20473;-49
2023/02/24 01:42:49;;;;;;;11.63;3.70;;;;;;;2.34;100.00;101422.81;2614853;36;20035;-55
2023/02/24 01:45:23;;;;;;;11.05;4.07;;;;;;;2.40;100.00;101421.63;2610356;36;20034;-52
2023/02/24 01:47:53;;;;;;;8.57;3.15;;;;;;;2.44;100.00;101413.50;2614795;31;20034;-52
2023/02/24 01:50:24;;;;;;;8.45;2.75;;;;;;;2.39;100.00;101402.19;2615007;36;20045;-54
2023/02/24 01:52:57;;;;;;;12.00;2.70;;;;;;;2.50;100.00;101407.00;2614961;36;20034;-52
2023/02/24 01:55:30;;;;;;;8.18;3.28;;;;;;;2.57;100.00;101399.63;2615857;36;20034;-52
2023/02/24 01:58:03;;;;;;;10.52;2.90;;;;;;;2.65;100.00;101393.94;2615734;36;20451;-50
2023/02/24 02:00:44;;;;;;;9.07;2.80;;;;;;;2.58;100.00;101396.91;2614766;36;20030;-51
2023/02/24 02:03:19;;;;;;;11.07;3.08;;;;;;;2.56;100.00;101381.94;2614402;36;20061;-50
2023/02/24 02:05:48;;;;;;;11.10;2.90;;;;;;;2.51;100.00;101373.34;2614716;31;20023;-49
2023/02/24 02:08:17;;;;;;;;;;;;;;;2.51;100.00;101371.53;2614702;36;20125;-51
2023/02/24 02:10:46;;;;;;;11.85;3.53;;;;;;;2.39;100.00;101378.28;2615594;36;19953;-49
2023/02/24 02:13:20;;;;;;;11.43;2.60;;;;;;;2.56;100.00;101368.66;2615815;31;20026;-49
2023/02/24 02:16:01;;;;;;;8.13;2.25;;;;;;;2.50;100.00;101359.19;2614755;36;20034;-54
2023/02/24 02:18:37;;;;;;;10.80;2.60;;;;;;;2.48;100.00;101358.41;2614485;36;20081;-58
2023/02/24 02:21:32;;;;;;;12.30;2.83;;;;;;;2.48;100.00;101360.22;2616164;31;20034;-49
2023/02/24 02:24:14;;;;;;;7.97;2.63;;;;;;;2.42;100.00;101351.56;2615324;36;20038;-49
2023/02/24 02:27:12;;;;;;;6.20;2.30;;;;;;;2.48;100.00;101345.13;2615791;36;20030;-52
2023/02/24 02:30:08;;;;;;;6.33;2.53;;;;;;;2.31;100.00;101343.22;2615282;36;20045;-49
2023/02/24 02:33:12;;;;;;;13.05;3.00;;;;;;;2.36;100.00;101335.94;2613430;36;20073;-52
2023/02/24 02:35:49;;;;;;;7.97;2.63;;;;;;;2.33;100.00;101338.72;2615768;36;20118;-49
2023/02/24 02:38:30;;;;;;;6.78;2.88;;;;;;;2.37;100.00;101340.31;2615596;31;20540;-49
2023/02/24 02:41:06;;;;;;;14.45;2.97;;;;;;;2.40;100.00;101337.50;2615983;36;20137;-50
2023/02/24 02:43:43;;;;;;;7.32;2.70;;;;;;;2.49;100.00;101333.56;2615792;36;20034;-50
2023/02/24 02:46:33;;;;;;;5.55;2.63;;;;;;;2.43;100.00;101320.56;2615852;36;20038;-49
2023/02/24 02:49:06;;;;;;;10.45;2.72;;;;;;;2.51;100.00;101323.72;2615001;36;20159;-51
2023/02/24 02:51:42;;;;;;;9.18;2.60;;;;;;;2.44;100.00;101323.16;2616156;36;20030;-53
2023/02/24 02:54:19;;;;;;;14.07;3.00;;;;;;;2.50;100.00;101315.81;2615504;36;20057;-53
2023/02/24 02:56:52;;;;;;;10.43;2.85;;;;;;;2.56;100.00;101318.16;2617425;31;20026;-51
2023/02/24 02:59:25;;;;;;;9.55;2.75;;;;;;;2.58;100.00;101314.50;2616966;36;20061;-53
2023/02/24 03:02:10;;;;;;;8.95;2.80;;;;;;;2.62;100.00;101304.59;2617054;36;20439;-52
2023/02/24 03:04:41;;;;;;;8.43;2.72;;;;;;;2.79;100.00;101301.13;2616834;36;20405;-53
2023/02/24 03:07:16;;;;;;;10.73;2.55;;;;;;;2.79;100.00;101291.34;2617255;36;20022;-53
2023/02/24 03:09:49;;;;;;;6.05;2.38;;;;;;;2.77;100.00;101293.22;2616942;36;20057;-55
2023/02/24 03:12:23;;;;;;;9.80;2.78;;;;;;;2.70;100.00;101289.13;2616551;36;20440;-53
2023/02/24 03:14:56;;;;;;;8.95;3.00;;;;;;;2.68;100.00;101284.84;2616542;31;20037;-54
2023/02/24 03:17:27;;;;;;;11.13;2.55;;;;;;;2.66;100.00;101279.59;2615967;36;20035;-52
2023/02/24 03:20:13;;;;;;;11.98;3.13;;;;;;;2.65;100.00;101279.66;2616852;36;20038;-54
2023/02/24 03:22:49;;;;;;;5.22;2.38;;;;;;;2.62;100.00;101283.31;2617116;36;20055;-51
2023/02/24 03:25:18;;;;;;;9.20;2.05;;;;;;;2.71;100.00;101280.25;2616761;36;20027;-51
2023/02/24 03:27:48;;;;;;;;;;;;;;;2.63;100.00;101267.34;2616775;36;20129;-57
2023/02/24 03:30:22;;;;;;;8.68;2.40;;;;;;;2.63;100.00;101259.38;2615470;36;20593;-49
2023/02/24 03:32:57;;;;;;;4.97;2.20;;;;;;;2.74;100.00;101255.28;2612113;36;20555;-49
2023/02/24 03:35:28;;;;;;;11.23;2.50;;;;;;;2.73;100.00;101257.09;2616051;36;20034;-52
2023/02/24 03:38:01;;;;;;;10.20;2.13;;;;;;;2.83;100.00;101252.19;2616614;36;20027;-51
2023/02/24 03:40:34;;;;;;;6.40;2.30;;;;;;;2.87;100.00;101255.53;2616661;36;20110;-51
2023/02/24 03:43:06;;;;;;;11.00;2.50;;;;;;;2.85;100.00;101245.00;2616383;36;20042;-49
2023/02/24 03:45:38;;;;;;;13.57;2.63;;;;;;;2.94;100.00;101244.53;2616547;36;20546;-50
2023/02/24 03:48:08;;;;;;;7.82;2.85;;;;;;;3.03;100.00;101239.69;2615722;36;20049;-50
2023/02/24 03:50:38;;;;;;;11.82;2.53;;;;;;;3.04;100.00;101236.09;2615573;31;20057;-52
2023/02/24 03:53:22;;;;;;;13.07;2.83;;;;;;;2.98;100.00;101242.59;2616797;36;20511;-50
2023/02/24 03:56:00;;;;;;;8.65;2.78;;;;;;;2.89;100.00;101232.41;2616915;36;20046;-52
2023/02/24 03:58:40;;;;;;;5.37;1.90;;;;;;;2.96;100.00;101233.84;2616707;36;20038;-50
2023/02/24 04:01:14;;;;;;;9.27;2.35;;;;;;;3.09;100.00;101239.38;2616290;36;20590;-53
2023/02/24 04:03:57;;;;;;;8.52;3.08;;;;;;;2.97;100.00;101225.78;2615811;36;20061;-51
2023/02/24 04:06:35;;;;;;;5.05;1.90;;;;;;;2.94;100.00;101220.59;2616149;31;20030;-50
2023/02/24 04:09:14;;;;;;;9.82;2.42;;;;;;;3.00;100.00;101216.75;2616401;36;20050;-50
2023/02/24 04:11:49;;;;;;;10.02;2.80;;;;;;;2.95;100.00;101205.50;2616924;36;20528;-51
2023/02/24 04:14:25;;;;;;;6.97;1.85;;;;;;;2.94;100.00;101203.78;2616449;36;20027;-51
2023/02/24 04:16:59;;;;;;;10.43;2.22;;;;;;;3.05;100.00;101205.88;2615737;31;20089;-52
2023/02/24 04:19:32;;;;;;;9.32;2.78;;;;;;;3.18;100.00;101208.78;2616192;36;20043;-50
2023/02/24 04:22:02;;;;;;;8.43;2.30;;;;;;;3.11;100.00;101195.81;2615527;36;20045;-51
2023/02/24 04:24:35;;;;;;;8.75;2.45;;;;;;;2.97;100.00;101193.00;2616388;36;20042;-55
2023/02/24 04:27:07;;;;;;;10.05;1.92;;;;;;;3.00;100.00;101191.97;2616601;36;20443;-51
2023/02/24 04:29:40;;;;;;;10.93;2.63;;;;;;;3.04;100.00;101182.91;2616357;31;20062;-53
2023/02/24 04:32:11;;;;;;;6.68;2.10;;;;;;;2.98;100.00;101168.13;2615806;36;20034;-51
2023/02/24 04:34:40;;;;;;;11.38;2.58;;;;;;;2.98;100.00;101171.63;2616154;36;20031;-53
2023/02/24 04:37:09;;;;;;;8.63;2.80;;;;;;;2.89;100.00;101158.81;2615937;36;20034;-50
2023/02/24 04:39:40;;;;;;;6.13;1.83;;;;;;;2.97;100.00;101161.97;2615845;36;20045;-49
2023/02/24 04:42:09;;;;;;;9.05;2.25;;;;;;;3.02;100.00;101164.38;2615840;36;20535;-50
2023/02/24 04:44:37;;;;;;;;;;;;;;;3.08;100.00;101169.38;2616431;36;20039;-50
2023/02/24 04:47:06;;;;;;;5.65;2.28;;;;;;;3.06;100.00;101160.63;2616225;36;20683;-54
2023/02/24 04:49:34;;;;;;;6.93;2.17;;;;;;;3.13;100.00;101154.00;2615947;36;20026;-55
2023/02/24 04:52:02;;;;;;;7.70;2.75;;;;;;;2.99;100.00;101153.91;2616263;36;20569;-51
2023/02/24 04:54:33;;;;;;;6.32;2.10;;;;;;;3.11;100.00;101145.28;2615991;36;20033;-54
2023/02/24 04:57:06;;;;;;;11.07;2.17;;;;;;;3.01;100.00;101129.88;2616635;36;20547;-51
2023/02/24 04:59:36;;;;;;;7.72;1.90;;;;;;;2.99;100.00;101127.31;2616255;36;20651;-50
2023/02/24 05:02:05;;;;;;;8.90;2.47;;;;;;;2.90;100.00;101130.44;2616360;36;20057;-51
2023/02/24 05:04:37;;;;;;;7.63;2.00;;;;;;;2.93;100.00;101123.16;2616738;36;20430;-54
2023/02/24 05:07:05;;;;;;;11.25;1.85;;;;;;;2.93;100.00;101122.28;2616540;36;20554;-51
2023/02/24 05:09:34;;;;;;;14.27;2.03;;;;;;;2.86;100.00;101118.25;2615732;36;20030;-54
2023/02/24 05:12:08;;;;;;;9.38;2.13;;;;;;;2.85;100.00;101109.41;2617114;36;20435;-49
2023/02/24 05:14:38;;;;;;;8.50;1.90;;;;;;;2.69;100.00;101106.69;2615676;36;20558;-52
2023/02/24 05:17:06;;;;;;;9.95;2.20;;;;;;;2.80;100.00;101107.00;2615978;36;20125;-50
2023/02/24 05:22:16;;;;;;;8.00;2.95;;;;;;;2.89;100.00;101087.03;2616510;31;20303;-55
2023/02/24 05:24:46;;;;;;;3.72;1.52;;;;;;;2.95;100.00;101083.22;2615162;36;20560;-50
2023/02/24 05:27:17;;;;;;;4.97;1.60;;;;;;;2.92;100.00;101081.56;2616183;36;20026;-54
2023/02/24 05:29:46;;;;;;;7.35;1.92;;;;;;;2.98;100.00;101067.94;2615983;36;20046;-50
2023/02/24 05:32:15;;;;;;;9.50;1.73;;;;;;;2.98;100.00;101067.09;2615439;31;20030;-50
2023/02/24 05:34:44;;;;;;;8.57;1.63;;;;;;;3.02;100.00;101066.00;2614954;36;20596;-49
2023/02/24 05:37:15;;;;;;;9.20;2.35;;;;;;;3.03;100.00;101065.03;2616210;31;20138;-49
2023/02/24 05:39:43;;;;;;;7.47;1.75;;;;;;;3.12;100.00;101055.69;2615775;31;20034;-54
2023/02/24 05:42:12;;;;;;;13.87;2.27;;;;;;;3.06;100.00;101048.94;2615782;36;20038;-58
2023/02/24 05:44:43;;;;;;;6.22;1.60;;;;;;;2.97;100.00;101044.97;2615728;36;20038;-49
2023/02/24 05:47:11;;;;;;;7.30;1.77;;;;;;;2.89;100.00;101035.69;2615870;36;20035;-54
2023/02/24 05:49:42;;;;;;;5.50;1.90;;;;;;;2.96;100.00;101029.94;2615848;31;20118;-55
2023/02/24 05:52:13;;;;;;;5.20;1.42;;;;;;;3.00;100.00;101025.31;2615684;36;20570;-53
2023/02/24 05:54:44;;;;;;;8.20;1.67;;;;;;;3.02;100.00;101014.59;2615255;36;20165;-50
2023/02/24 05:57:15;;;;;;;7.28;1.88;;;;;;;3.14;100.00;101003.31;2616267;31;20032;-53
2023/02/24 05:59:47;;;;;;;6.93;1.70;;;;;;;3.12;100.00;100994.53;2616159;36;20065;-56
2023/02/24 06:02:25;;;;;;;7.28;1.75;;;;;;;3.17;100.00;100997.81;2615016;31;20027;-49
2023/02/24 06:04:55;;;;;;;9.50;1.80;;;;;;;3.18;100.00;100988.91;2615514;36;20064;-53
2023/02/24 06:07:26;;;;;;;6.22;1.65;;;;;;;3.29;100.00;100988.28;2616074;36;20591;-51
2023/02/24 06:09:56;;;;;;;4.15;1.77;;;;;;;3.20;100.00;100991.47;2615743;36;20034;-54
2023/02/24 06:12:27;;;;;;;8.05;1.45;;;;;;;3.33;100.00;100996.00;2616249;36;20576;-55
2023/02/24 06:15:06;;;;;;;11.50;2.00;;;;;;;3.29;100.00;100994.44;2616659;36;20435;-54
2023/02/24 06:17:34;;;;;;;8.23;1.88;;;;;;;3.30;100.00;100985.53;2614440;36;20041;-50
2023/02/24 06:20:12;;;;;;;6.80;1.80;;;;;;;3.29;100.00;100988.28;2616221;36;20451;-50
2023/02/24 06:22:41;;;;;;;7.40;1.60;;;;;;;3.25;100.00;100984.06;2616048;31;20332;-54
2023/02/24 06:25:10;;;;;;;5.80;1.80;;;;;;;3.36;100.00;100975.47;2616407;36;20443;-49
2023/02/24 06:27:41;;;;;;;6.30;1.75;;;;;;;3.35;100.00;100973.78;2615354;36;20043;-51
2023/02/24 06:30:14;;;;;;;9.45;2.03;;;;;;;3.45;100.00;100974.97;2615128;36;20057;-50
2023/02/24 06:32:43;;;;;;;9.65;1.92;;;;;;;3.46;100.00;100966.91;2615329;36;20034;-56
2023/02/24 06:35:12;;;;;;;9.77;1.73;;;;;;;3.41;100.00;100958.31;2614911;36;20137;-53
2023/02/24 06:37:41;;;;;;;;;;;;;;;3.52;100.00;100955.06;2614018;31;20026;-50
2023/02/24 06:40:14;;;;;;;14.13;2.13;;;;;;;3.43;100.00;100948.47;2614265;31;19957;-51
2023/02/24 06:42:46;;;;;;;12.73;2.22;;;;;;;3.34;100.00;100951.63;2615029;31;20041;-49
2023/02/24 06:45:18;;;;;;;11.02;2.38;;;;;;;3.45;100.00;100951.03;2614977;36;20029;-49
2023/02/24 06:47:47;;;;;;;5.72;1.60;;;;;;;3.56;100.00;100937.09;2613333;36;20773;-52
2023/02/24 06:50:18;;;;;;;6.75;2.08;;;;;;;3.57;100.00;100941.47;2615256;31;20049;-55
2023/02/24 06:52:47;;;;;;;6.22;1.90;;;;;;;3.70;100.00;100934.50;2615585;36;20401;-49
2023/02/24 06:55:26;;;;;;;7.03;2.13;;;;;;;3.70;100.00;100939.81;2613631;36;20039;-49
2023/02/24 06:58:03;;;;;;;5.10;1.90;;;;;;;3.73;100.00;100936.97;2615291;36;20042;-57
2023/02/24 07:00:39;;;;;;;5.65;1.70;;;;;;;3.65;100.00;100933.88;2614601;36;20427;-55
2023/02/24 07:03:16;;;;;;;7.65;2.30;;;;;;;3.63;100.00;100917.16;2614134;36;20039;-51
2023/02/24 07:05:49;;;;;;;9.20;2.17;;;;;;;3.63;100.00;100927.81;2614926;36;20061;-51
2023/02/24 07:08:19;;;;;;;7.50;1.90;;;;;;;3.66;100.00;100925.81;2615169;36;20041;-54
2023/02/24 07:10:54;;;;;;;7.50;2.10;;;;;;;3.65;100.00;100917.91;2619905;36;20027;-51
2023/02/24 07:13:23;;;;;;;9.90;2.00;;;;;;;3.60;100.00;100912.03;2615588;36;20041;-49
2023/02/24 07:15:54;;;;;;;8.13;2.45;;;;;;;3.63;100.00;100915.34;2615183;36;20026;-54
2023/02/24 07:18:25;;;;;;;6.07;2.08;;;;;;;3.66;100.00;100915.16;2615047;31;20042;-50
2023/02/24 07:20:54;;;;;;;9.55;2.10;;;;;;;3.77;100.00;100917.22;2614780;36;20563;-54
2023/02/24 07:23:22;;;;;;;7.60;1.90;;;;;;;3.67;100.00;100914.22;2615509;36;20031;-51
2023/02/24 07:25:52;;;;;;;10.45;2.42;;;;;;;3.91;100.00;100912.88;2615173;36;20117;-57
2023/02/24 07:28:21;;;;;;;12.45;2.30;;;;;;;3.85;100.00;100903.44;2615315;31;20065;-56
2023/02/24 07:30:51;;;;;;;9.57;2.17;;;;;;;4.01;100.00;100903.38;2615540;36;20069;-50
2023/02/24 07:33:22;;;;;;;11.57;2.15;;;;;;;3.98;100.00;100904.41;2614996;36;20030;-49
2023/02/24 07:35:52;;;;;;;6.03;2.13;;;;;;;3.94;100.00;100896.69;2615329;36;20039;-51
2023/02/24 07:38:21;;;;;;;12.25;2.95;;;;;;;4.03;100.00;100894.34;2614420;36;20061;-53
2023/02/24 07:40:50;;;;;;;6.28;3.05;;;;;;;3.85;100.00;100893.63;2615736;36;20075;-51
2023/02/24 07:43:19;;;;;;;9.52;2.00;;;;;;;4.00;100.00;100894.50;2616466;36;20069;-54
2023/02/24 07:45:48;;;;;;;5.43;2.65;;;;;;;4.08;100.00;100888.75;2616563;36;20034;-50
2023/02/24 07:48:17;;;;;;;7.85;2.33;;;;;;;4.11;100.00;100885.00;2616067;36;20030;-49
2023/02/24 07:50:49;;;;;;;6.35;2.15;;;;;;;4.12;100.00;100890.28;2616945;36;20455;-52
2023/02/24 07:53:18;;;;;;;11.10;2.38;;;;;;;4.04;100.00;100887.22;2616980;36;20093;-49
2023/02/24 07:55:46;;;;;;;6.00;2.28;;;;;;;4.04;100.00;100887.22;2616921;31;20515;-52
2023/02/24 07:58:14;;;;;;;5.32;2.00;;;;;;;4.25;100.00;100886.84;2616941;36;20448;-51
2023/02/24 08:00:58;;;;;;;10.02;2.38;;;;;;;4.33;100.00;100876.59;2616429;36;20038;-50
2023/02/24 08:03:29;;;;;;;11.13;2.83;;;;;;;4.28;100.00;100870.66;2615645;36;20228;-51
2023/02/24 08:06:14;;;;;;;13.93;2.88;;;;;;;4.26;100.00;100864.59;2616554;36;20034;-50
2023/02/24 08:08:56;;;;;;;11.13;2.75;;;;;;;4.35;100.00;100858.69;2616630;36;20031;-53
2023/02/24 08:11:26;;;;;;;8.13;2.60;;;;;;;4.42;100.00;100865.34;2616977;36;20049;-49
2023/02/24 08:13:58;;;;;;;7.88;3.33;;;;;;;4.56;100.00;100857.34;2616124;31;20057;-49
2023/02/24 08:16:38;;;;;;;6.65;2.75;;;;;;;4.56;100.00;100852.00;2615991;36;20149;-49
2023/02/24 08:19:06;;;;;;;12.60;3.33;;;;;;;4.64;100.00;100847.97;2616059;36;20030;-53
2023/02/24 08:21:40;;;;;;;13.13;3.70;;;;;;;4.74;100.00;100843.75;2616380;36;20026;-51
2023/02/24 08:24:16;;;;;;;8.50;3.00;;;;;;;4.56;100.00;100838.69;2616814;31;20034;-53
2023/02/24 08:26:47;;;;;;;14.02;3.20;;;;;;;4.53;100.00;100838.00;2616598;36;20029;-52
2023/02/24 08:29:19;;;;;;;9.63;2.72;;;;;;;4.50;100.00;100836.38;2616798;36;20054;-50
2023/02/24 08:31:48;;;;;;;8.70;3.15;;;;;;;4.60;100.00;100831.31;2616491;31;20447;-55
2023/02/24 08:34:17;;;;;;;10.43;3.00;;;;;;;4.58;100.00;100827.91;2616215;36;20126;-53
2023/02/24 08:36:54;;;;;;;8.82;2.60;;;;;;;4.61;100.00;100819.72;2616326;36;20034;-54
2023/02/24 08:39:23;;;;;;;8.05;2.83;;;;;;;4.53;100.00;100817.56;2616419;31;20057;-54
2023/02/24 08:41:53;;;;;;;14.27;3.00;;;;;;;4.56;100.00;100822.69;2615298;36;20527;-49
2023/02/24 08:44:22;;;;;;;7.55;2.80;;;;;;;4.69;100.00;100813.88;2615425;31;20034;-52
2023/02/24 08:46:51;;;;;;;12.20;2.63;;;;;;;4.78;100.00;100801.75;2616882;31;20035;-51
2023/02/24 08:49:20;;;;;;;11.07;2.75;;;;;;;4.91;100.00;100802.66;2613392;36;20427;-55
2023/02/24 08:51:51;;;;;;;11.93;2.58;;;;;;;4.98;100.00;100795.13;2616013;36;20033;-49
2023/02/24 08:54:25;;;;;;;6.85;3.03;;;;;;;4.89;100.00;100789.44;2614744;36;20026;-50
2023/02/24 08:56:56;;;;;;;13.35;2.72;;;;;;;4.91;100.00;100781.34;2615851;36;20046;-54
2023/02/24 09:02:23;;;;;;;8.98;2.55;;;;;;;5.02;100.00;100773.47;2610811;36;20027;-51
2023/02/24 09:04:53;;;;;;;8.98;2.50;;;;;;;5.17;100.00;100766.25;2613000;31;20166;-54
2023/02/24 09:07:34;;;;;;;6.45;2.58;;;;;;;5.08;100.00;100766.88;2614303;36;20046;-53
2023/02/24 09:10:02;;;;;;;7.65;2.65;;;;;;;4.90;100.00;100769.81;2612195;36;20539;-54
2023/02/24 09:12:34;;;;;;;9.20;2.58;;;;;;;4.88;100.00;100769.03;2613126;36;20037;-50
2023/02/24 09:15:04;;;;;;;15.88;4.60;;;;;;;5.03;100.00;100761.00;2613349;36;20077;-53
2023/02/24 09:17:48;;;;;;;11.88;2.85;;;;;;;4.88;100.00;100766.38;2613321;36;20053;-52
2023/02/24 09:23:08;;;;;;;17.55;3.17;;;;;;;4.96;100.00;100743.69;2615272;31;20431;-55
2023/02/24 09:25:43;;;;;;;11.43;3.28;;;;;;;5.08;100.00;100738.38;2615289;36;20182;-50
2023/02/24 09:28:16;;;;;;;11.55;3.38;;;;;;;5.07;100.00;100728.66;2612874;36;20037;-53
2023/02/24 09:30:52;;;;;;;12.65;3.72;;;;;;;5.14;100.00;100729.13;2614083;36;20038;-50
2023/02/24 09:33:24;;;;;;;14.93;3.95;;;;;;;5.09;100.00;100728.56;2616535;31;20546;-50
2023/02/24 09:41:52;;;;;;;15.10;4.53;;;;;;;5.23;100.00;100722.28;2613103;31;20058;-52
2023/02/24 09:44:25;;;;;;;13.90;3.85;;;;;;;5.15;100.00;100720.13;2611870;36;20038;-52
2023/02/24 09:46:59;;;;;;;16.33;4.10;;;;;;;5.13;100.00;100710.53;2613837;36;20038;-55
2023/02/24 09:49:38;;;;;;;19.90;4.65;;;;;;;5.26;100.00;100714.94;2613913;36;20417;-50
2023/02/24 09:52:15;;;;;;;13.95;3.95;;;;;;;5.11;100.00;100713.31;2613469;36;20133;-54
2023/02/24 09:57:36;;;;;;;10.18;3.42;;;;;;;5.29;100.00;100707.69;2614482;36;20046;-49
2023/02/24 10:00:32;;;;;;;12.18;3.75;;;;;;;5.34;100.00;100702.88;2614554;36;20039;-57
2023/02/24 10:03:18;;;;;;;11.45;3.72;;;;;;;5.46;100.00;100714.50;2614128;31;20057;-49
2023/02/24 10:05:57;;;;;;;10.55;3.72;;;;;;;5.56;100.00;100705.75;2614415;36;20041;-55
2023/02/24 10:08:33;;;;;;;12.32;4.03;;;;;;;5.56;100.00;100703.06;2614133;36;20544;-51
2023/02/24 10:11:08;;;;;;;18.30;3.75;;;;;;;5.52;100.00;100701.59;2614105;36;20497;-52
2023/02/24 10:13:42;;;;;;;13.23;4.35;;;;;;;5.66;100.00;100691.75;2614720;36;20026;-51
2023/02/24 10:16:22;;;;;;;12.07;3.67;;;;;;;5.68;100.00;100689.81;2614339;36;20125;-51
2023/02/24 10:18:59;;;;;;;11.32;3.72;;;;;;;5.64;100.00;100689.19;2611777;36;20038;-52
2023/02/24 10:21:47;;;;;;;8.50;3.63;;;;;;;5.63;100.00;100681.31;2615320;36;20595;-50
2023/02/24 10:24:22;;;;;;;13.07;3.88;;;;;;;5.66;100.00;100676.59;2613202;36;20050;-49
2023/02/24 10:26:57;;;;;;;13.93;4.38;;;;;;;5.58;100.00;100663.78;2613717;31;20129;-49
2023/02/24 10:29:38;;;;;;;10.43;3.70;;;;;;;5.64;100.00;100661.63;2614060;36;20030;-47
2023/02/24 10:32:22;;;;;;;11.35;3.90;;;;;;;5.69;100.00;100664.84;2614595;36;20429;-50
2023/02/24 10:34:50;;;;;;;14.45;4.53;;;;;;;5.79;100.00;100663.22;2613608;31;20247;-50
2023/02/24 10:37:22;;;;;;;16.37;3.87;;;;;;;5.76;100.00;100652.75;2615251;36;20443;-58
2023/02/24 10:39:51;;;;;;;15.73;4.38;;;;;;;5.91;100.00;100651.63;2615292;36;20053;-53
2023/02/24 10:42:36;;;;;;;9.55;3.85;;;;;;;5.87;100.00;100652.81;2615000;36;20027;-51
2023/02/24 10:45:16;;;;;;;10.70;3.85;;;;;;;6.00;100.00;100641.28;2612366;36;20653;-50
2023/02/24 10:47:46;;;;;;;13.32;4.25;;;;;;;6.21;100.00;100639.69;2614978;36;20038;-57
2023/02/24 10:50:26;;;;;;;9.57;4.18;;;;;;;6.10;100.00;100635.16;2614338;36;20070;-56
2023/02/24 10:53:25;;;;;;;13.57;4.78;;;;;;;6.02;100.00;100631.34;2614526;36;20133;-53
2023/02/24 10:56:13;;;;;;;9.30;3.50;;;;;;;6.15;100.00;100629.47;2615596;31;20085;-49
2023/02/24 10:58:55;;;;;;;8.15;3.67;;;;;;;6.14;100.00;100628.63;2613814;36;20034;-51
2023/02/24 11:01:39;;;;;;;10.27;3.83;;;;;;;6.17;100.00;100632.91;2614848;36;20061;-53
2023/02/24 11:04:21;;;;;;;8.20;3.75;;;;;;;6.31;100.00;100624.69;2613643;36;20054;-50
2023/02/24 11:07:08;;;;;;;8.35;4.60;;;;;;;6.30;100.00;100624.81;2615062;31;20042;-53
2023/02/24 11:09:42;;;;;;;10.32;4.50;;;;;;;6.38;100.00;100624.25;2612840;36;20563;-54
2023/02/24 11:17:55;;;;;;;10.63;4.70;;;;;;;6.52;100.00;100616.03;2613869;36;20455;-51
2023/02/24 11:20:30;;;;;;;11.65;5.05;;;;;;;6.57;100.00;100619.22;2614891;36;20038;-50
2023/02/24 11:22:59;;;;;;;12.68;4.97;;;;;;;6.69;100.00;100613.91;2616009;36;20030;-55
2023/02/24 11:25:38;;;;;;;8.77;5.05;;;;;;;6.65;100.00;100615.94;2615712;36;20727;-54
2023/02/24 11:28:18;;;;;;;11.18;6.10;;;;;;;6.76;100.00;100607.13;2615377;36;20170;-53
2023/02/24 11:31:01;;;;;;;14.93;6.32;;;;;;;6.92;100.00;100612.13;2615211;36;20039;-52
2023/02/24 11:33:41;;;;;;;15.55;6.97;;;;;;;7.06;100.00;100605.72;2614514;36;20061;-54
2023/02/24 11:36:21;;;;;;;13.65;7.03;;;;;;;7.03;100.00;100606.81;2615892;36;20030;-56
2023/02/24 11:38:59;;;;;;;13.23;6.70;;;;;;;7.03;100.00;100595.25;2615897;36;20046;-52
2023/02/24 11:41:31;;;;;;;15.27;7.55;;;;;;;7.15;100.00;100595.13;2615600;31;20042;-56
2023/02/24 11:44:03;;;;;;;17.15;7.30;;;;;;;7.21;100.00;100587.59;2616744;36;20050;-54
2023/02/24 11:46:43;;;;;;;15.13;7.40;;;;;;;7.42;100.00;100577.00;2614618;31;20035;-56
2023/02/24 11:49:24;;;;;;;18.58;8.30;;;;;;;7.35;100.00;100584.69;2614160;36;20562;-50
2023/02/24 11:51:55;;;;;;;17.83;7.68;;;;;;;7.63;100.00;100577.97;2615520;36;20022;-50
2023/02/24 11:54:24;;;;;;;20.08;7.88;;;;;;;7.67;100.00;100571.38;2615666;36;20093;-56
2023/02/24 11:56:56;;;;;;;29.15;9.20;;;;;;;7.82;100.00;100563.94;2614013;36;20042;-50
2023/02/24 11:59:33;;;;;;;21.02;7.35;;;;;;;7.97;100.00;100571.69;2616183;36;20469;-50
2023/02/24 12:02:15;;;;;;;21.77;7.72;;;;;;;8.47;100.00;100568.47;2615160;36;20085;-54
2023/02/24 12:04:55;;;;;;;19.80;6.90;;;;;;;8.75;100.00;100558.94;2614022;36;20061;-54
2023/02/24 12:07:26;;;;;;;;;;;;;;;9.21;100.00;100560.28;2615319;31;20035;-53
2023/02/24 12:10:00;;;;;;;31.15;6.40;;;;;;;9.19;100.00;100545.31;2615043;36;19957;-56
2023/02/24 12:12:35;;;;;;;16.80;4.97;;;;;;;9.25;100.00;100544.78;2614209;36;20065;-52